Time;durP1;ratioP1;P1;durP2;ratioP2;P2;SDS_P1;SDS_P2;PMS_P1;PMS_P2;Temp;Humidity;BMP_temperature;BMP_pressure;BME280_temperature;BME280_humidity;BME280_pressure;Samples;Min_cycle;Max_cycle;Signal;HPM_P1;HPM_P2
2022/04/15 00:00:45;;;;;;;;;;;8.30;99.90;;;;;;5000357;28;20296;-68
2022/04/15 00:03:11;;;;;;;;;;;8.20;99.90;;;;;;5000120;28;19930;-68
2022/04/15 00:05:37;;;;;;;;;;;8.20;99.90;;;;;;5008775;28;19925;-68
2022/04/15 00:08:06;;;;;;;;;;;8.20;99.90;;;;;;5008547;28;19968;-68
2022/04/15 00:10:32;;;;;;;;;;;8.20;99.90;;;;;;5011746;28;19947;-68
2022/04/15 00:12:58;;;;;;;;;;;9.10;99.90;;;;;;4976037;28;19926;-70
2022/04/15 00:15:24;;;;;;;;;;;8.20;99.90;;;;;;5024725;28;20048;-68
2022/04/15 00:17:50;;;;;;;;;;;8.20;99.90;;;;;;4997781;28;19922;-68
2022/04/15 00:20:16;;;;;;;;;;;8.30;99.90;;;;;;5006005;28;20418;-68
2022/04/15 00:22:41;;;;;;;;;;;8.20;99.90;;;;;;5015157;28;19921;-68
2022/04/15 00:25:09;;;;;;;;;;;8.10;99.90;;;;;;5019076;28;19921;-68
2022/04/15 00:27:35;;;;;;;;;;;8.20;99.90;;;;;;4998296;28;20017;-69
2022/04/15 00:30:01;;;;;;;;;;;8.20;99.90;;;;;;5009164;28;19925;-68
2022/04/15 00:32:27;;;;;;;;;;;8.20;99.90;;;;;;5016791;28;19925;-68
2022/04/15 00:34:53;;;;;;;;;;;8.20;99.90;;;;;;4999207;28;19927;-68
2022/04/15 00:37:18;;;;;;;;;;;8.20;99.90;;;;;;5015156;28;19957;-68
2022/04/15 00:39:45;;;;;;;;;;;8.20;99.90;;;;;;4999280;28;20051;-68
2022/04/15 00:42:11;;;;;;;;;;;8.20;99.90;;;;;;5003999;28;19968;-68
2022/04/15 00:44:37;;;;;;;;;;;8.20;99.90;;;;;;5004511;28;19922;-68
2022/04/15 00:47:29;;;;;;;;;;;8.30;99.90;;;;;;5011511;28;20011;-68
2022/04/15 00:49:55;;;;;;;;;;;8.30;99.90;;;;;;4987568;28;19957;-68
2022/04/15 00:52:21;;;;;;;;;;;8.30;99.90;;;;;;5005682;28;19921;-68
2022/04/15 00:54:51;;;;;;;;;;;8.40;99.90;;;;;;5029021;28;20387;-68
2022/04/15 00:57:21;;;;;;;;;;;8.40;99.90;;;;;;5010646;28;19922;-68
2022/04/15 00:59:46;;;;;;;;;;;8.40;99.90;;;;;;5005469;28;20301;-69
2022/04/15 01:02:15;;;;;;;;;;;8.40;99.90;;;;;;5011306;28;20355;-68
2022/04/15 01:04:41;;;;;;;;;;;8.50;99.90;;;;;;5013031;28;19921;-67
2022/04/15 01:07:07;;;;;;;;;;;8.50;99.90;;;;;;5006624;28;19922;-69
2022/04/15 01:09:35;;;;;;;;;;;8.50;99.90;;;;;;5011019;28;19929;-67
2022/04/15 01:12:03;;;;;;;;;;;8.60;99.90;;;;;;5018917;28;20390;-67
2022/04/15 01:14:29;;;;;;;;;;;8.60;99.90;;;;;;5011173;28;19987;-68
2022/04/15 01:16:56;;;;;;;;;;;8.50;99.90;;;;;;5012768;28;19925;-68
2022/04/15 01:19:21;;;;;;;;;;;8.50;99.90;;;;;;4999462;28;19921;-67
2022/04/15 01:21:48;;;;;;;;;;;8.50;99.90;;;;;;5015271;28;19972;-69
2022/04/15 01:24:14;;;;;;;;;;;8.50;99.90;;;;;;5006252;28;19928;-68
2022/04/15 01:26:39;;;;;;;;;;;8.50;99.90;;;;;;5000727;28;19921;-67
2022/04/15 01:29:05;;;;;;;;;;;8.50;99.90;;;;;;5012521;28;19921;-68
2022/04/15 01:31:31;;;;;;;;;;;8.50;99.90;;;;;;4998621;28;20402;-67
2022/04/15 01:33:58;;;;;;;;;;;8.50;99.90;;;;;;5007605;28;19925;-68
2022/04/15 01:36:23;;;;;;;;;;;8.40;99.90;;;;;;5014857;28;19921;-68
2022/04/15 01:38:49;;;;;;;;;;;8.50;99.90;;;;;;5008618;28;19922;-68
2022/04/15 01:41:16;;;;;;;;;;;8.50;99.90;;;;;;5012777;28;19967;-68
2022/04/15 01:43:41;;;;;;;;;;;8.70;99.90;;;;;;5014276;28;20375;-68
2022/04/15 01:46:07;;;;;;;;;;;8.50;99.90;;;;;;5008687;28;19922;-68
2022/04/15 01:48:32;;;;;;;;;;;8.50;99.90;;;;;;5003178;28;19921;-69
2022/04/15 01:50:58;;;;;;;;;;;8.50;99.90;;;;;;5010332;28;19922;-67
2022/04/15 01:53:23;;;;;;;;;;;8.60;99.90;;;;;;5008039;28;20457;-68
2022/04/15 01:55:52;;;;;;;;;;;8.60;99.90;;;;;;5011030;28;20040;-68
2022/04/15 01:58:17;;;;;;;;;;;8.50;99.90;;;;;;5001632;28;19921;-69
2022/04/15 02:00:43;;;;;;;;;;;8.50;99.90;;;;;;5004162;28;20283;-67
2022/04/15 02:03:08;;;;;;;;;;;8.90;99.90;;;;;;5000541;28;19927;-68
2022/04/15 02:05:34;;;;;;;;;;;8.80;99.90;;;;;;5014113;28;19943;-67
2022/04/15 02:07:59;;;;;;;;;;;8.50;99.90;;;;;;5010813;28;19921;-68
2022/04/15 02:10:25;;;;;;;;;;;8.50;99.90;;;;;;5008564;28;19932;-67
2022/04/15 02:12:50;;;;;;;;;;;8.50;99.90;;;;;;5013176;28;19922;-68
2022/04/15 02:15:16;;;;;;;;;;;8.50;99.90;;;;;;5008440;28;19964;-68
2022/04/15 02:17:41;;;;;;;;;;;8.50;99.90;;;;;;5005077;28;19922;-69
2022/04/15 02:20:09;;;;;;;;;;;8.40;99.90;;;;;;5024144;28;19921;-68
2022/04/15 02:22:35;;;;;;;;;;;8.50;99.90;;;;;;4998463;28;20017;-68
2022/04/15 02:25:01;;;;;;;;;;;9.50;99.90;;;;;;5010535;28;20012;-67
2022/04/15 02:27:27;;;;;;;;;;;9.70;99.90;;;;;;5005185;28;19968;-69
2022/04/15 02:29:53;;;;;;;;;;;8.40;99.90;;;;;;5013536;28;19921;-67
2022/04/15 02:32:18;;;;;;;;;;;8.40;99.90;;;;;;5008672;28;19983;-68
2022/04/15 02:34:44;;;;;;;;;;;8.40;99.90;;;;;;5013008;28;19921;-68
2022/04/15 02:37:09;;;;;;;;;;;8.50;99.90;;;;;;4997179;28;20071;-67
2022/04/15 02:39:35;;;;;;;;;;;8.60;99.90;;;;;;5004108;28;20323;-68
2022/04/15 02:42:00;;;;;;;;;;;8.40;99.90;;;;;;5006687;28;21731;-68
2022/04/15 02:44:29;;;;;;;;;;;8.40;99.90;;;;;;5010948;28;19944;-68
2022/04/15 02:46:57;;;;;;;;;;;8.90;99.90;;;;;;5009601;28;19921;-68
2022/04/15 02:49:23;;;;;;;;;;;8.30;99.90;;;;;;5013717;28;19925;-68
2022/04/15 02:51:49;;;;;;;;;;;8.30;99.90;;;;;;5003130;28;19928;-68
2022/04/15 02:54:15;;;;;;;;;;;8.20;99.90;;;;;;5000402;28;19921;-69
2022/04/15 02:56:40;;;;;;;;;;;8.30;99.90;;;;;;5009663;28;19928;-69
2022/04/15 02:59:06;;;;;;;;;;;8.30;99.90;;;;;;5009079;28;20007;-66
2022/04/15 03:01:31;;;;;;;;;;;8.10;99.90;;;;;;5003175;28;19928;-68
2022/04/15 03:03:57;;;;;;;;;;;8.10;99.90;;;;;;4994943;28;19928;-70
2022/04/15 03:06:22;;;;;;;;;;;9.20;99.90;;;;;;5011897;28;19928;-68
2022/04/15 03:08:48;;;;;;;;;;;8.00;99.90;;;;;;5012898;28;19921;-67
2022/04/15 03:11:13;;;;;;;;;;;8.00;99.90;;;;;;5000902;28;19921;-68
2022/04/15 03:13:39;;;;;;;;;;;7.90;99.90;;;;;;5003184;28;20372;-69
2022/04/15 03:16:04;;;;;;;;;;;7.90;99.90;;;;;;5006004;28;19922;-68
2022/04/15 03:18:30;;;;;;;;;;;7.80;99.90;;;;;;4996219;28;19922;-67
2022/04/15 03:20:55;;;;;;;;;;;7.80;99.90;;;;;;5000955;28;19999;-68
2022/04/15 03:23:21;;;;;;;;;;;7.70;99.90;;;;;;5001552;28;19921;-69
2022/04/15 03:25:49;;;;;;;;;;;7.70;99.90;;;;;;5012965;28;19940;-68
2022/04/15 03:28:15;;;;;;;;;;;7.60;99.90;;;;;;5009979;28;19921;-69
2022/04/15 03:30:41;;;;;;;;;;;7.60;99.90;;;;;;5010626;28;19928;-68
2022/04/15 03:33:06;;;;;;;;;;;7.50;99.90;;;;;;5011372;28;19960;-68
2022/04/15 03:35:32;;;;;;;;;;;8.10;99.90;;;;;;5008362;28;19929;-69
2022/04/15 03:37:57;;;;;;;;;;;7.40;99.90;;;;;;4992253;28;19921;-67
2022/04/15 03:40:23;;;;;;;;;;;7.30;99.90;;;;;;5004422;28;19922;-67
2022/04/15 03:42:49;;;;;;;;;;;7.20;99.90;;;;;;4997994;28;19928;-68
2022/04/15 03:45:18;;;;;;;;;;;7.20;99.90;;;;;;4993959;28;19922;-67
2022/04/15 03:47:43;;;;;;;;;;;7.20;99.90;;;;;;5012256;28;20008;-68
2022/04/15 03:50:10;;;;;;;;;;;7.20;99.90;;;;;;5011977;28;19968;-68
2022/04/15 03:52:38;;;;;;;;;;;7.20;99.90;;;;;;5001307;28;19980;-68
2022/04/15 03:55:04;;;;;;;;;;;7.30;99.90;;;;;;4993071;28;19957;-69
2022/04/15 03:57:30;;;;;;;;;;;7.30;99.90;;;;;;5011675;28;19922;-69
2022/04/15 03:59:55;;;;;;;;;;;7.30;99.90;;;;;;5002337;28;19941;-68
2022/04/15 04:02:21;;;;;;;;;;;7.30;99.90;;;;;;5010483;28;20267;-69
2022/04/15 04:04:46;;;;;;;;;;;7.40;99.90;;;;;;5004335;28;19929;-67
2022/04/15 04:07:12;;;;;;;;;;;8.20;99.90;;;;;;5010588;28;19922;-68
2022/04/15 04:09:37;;;;;;;;;;;7.40;99.90;;;;;;5002879;28;19929;-69
2022/04/15 04:12:03;;;;;;;;;;;7.40;99.90;;;;;;5007164;28;19921;-68
2022/04/15 04:14:29;;;;;;;;;;;7.40;99.90;;;;;;5024858;28;19921;-68
2022/04/15 04:16:54;;;;;;;;;;;7.40;99.90;;;;;;5013761;28;20025;-68
2022/04/15 04:19:20;;;;;;;;;;;7.40;99.90;;;;;;4997506;28;19929;-68
2022/04/15 04:21:46;;;;;;;;;;;7.30;99.90;;;;;;5003423;28;20363;-68
2022/04/15 04:24:12;;;;;;;;;;;7.30;99.90;;;;;;5000643;28;20292;-69
2022/04/15 04:26:38;;;;;;;;;;;7.30;99.90;;;;;;5001508;28;19922;-68
2022/04/15 04:29:03;;;;;;;;;;;7.30;99.90;;;;;;5012184;28;19921;-68
2022/04/15 04:31:29;;;;;;;;;;;7.30;99.90;;;;;;5015753;28;19929;-69
2022/04/15 04:33:54;;;;;;;;;;;7.40;99.90;;;;;;5000216;28;19929;-67
2022/04/15 04:36:20;;;;;;;;;;;7.30;99.90;;;;;;5010075;28;19976;-68
2022/04/15 04:38:45;;;;;;;;;;;7.60;99.90;;;;;;5013312;28;20387;-68
2022/04/15 04:41:11;;;;;;;;;;;7.30;99.90;;;;;;5014736;28;19925;-68
2022/04/15 04:43:36;;;;;;;;;;;7.30;99.90;;;;;;5026384;28;20008;-69
2022/04/15 04:46:02;;;;;;;;;;;8.40;99.90;;;;;;5008993;28;20043;-69
2022/04/15 04:48:27;;;;;;;;;;;7.30;99.90;;;;;;5003458;28;19925;-69
2022/04/15 04:50:53;;;;;;;;;;;7.30;99.90;;;;;;5020603;28;19988;-68
2022/04/15 04:53:19;;;;;;;;;;;7.20;99.90;;;;;;4996533;28;19922;-69
2022/04/15 04:55:44;;;;;;;;;;;7.20;99.90;;;;;;4998523;28;19944;-68
2022/04/15 04:58:10;;;;;;;;;;;7.20;99.90;;;;;;5026612;28;19928;-68
2022/04/15 05:00:35;;;;;;;;;;;7.10;99.90;;;;;;5002748;28;19921;-68
2022/04/15 05:03:02;;;;;;;;;;;7.20;99.90;;;;;;5008357;28;19928;-68
2022/04/15 05:05:27;;;;;;;;;;;7.20;99.90;;;;;;5005643;28;19922;-68
2022/04/15 05:07:53;;;;;;;;;;;7.20;99.90;;;;;;5002818;28;19935;-69
2022/04/15 05:10:18;;;;;;;;;;;7.20;99.90;;;;;;5004611;28;20348;-68
2022/04/15 05:12:45;;;;;;;;;;;7.20;99.90;;;;;;5028152;28;20346;-68
2022/04/15 05:15:11;;;;;;;;;;;7.20;99.90;;;;;;5013201;28;19922;-69
2022/04/15 05:17:37;;;;;;;;;;;7.20;99.90;;;;;;4995261;28;19922;-68
2022/04/15 05:20:03;;;;;;;;;;;7.20;99.90;;;;;;5007853;28;19975;-68
2022/04/15 05:22:29;;;;;;;;;;;7.20;99.90;;;;;;5002792;28;19921;-68
2022/04/15 05:24:54;;;;;;;;;;;7.10;99.90;;;;;;5007482;28;19992;-69
2022/04/15 05:27:20;;;;;;;;;;;7.20;99.90;;;;;;4995967;28;19921;-67
2022/04/15 05:29:45;;;;;;;;;;;7.20;99.90;;;;;;5007557;28;19988;-69
2022/04/15 05:32:11;;;;;;;;;;;7.20;99.90;;;;;;5013627;28;19921;-70
2022/04/15 05:34:37;;;;;;;;;;;7.20;99.90;;;;;;5011342;28;19929;-70
2022/04/15 05:37:02;;;;;;;;;;;7.20;99.90;;;;;;5011032;28;19975;-69
2022/04/15 05:39:28;;;;;;;;;;;7.20;99.90;;;;;;5000180;28;20265;-69
2022/04/15 05:41:53;;;;;;;;;;;7.20;99.90;;;;;;5005529;28;20376;-68
2022/04/15 05:44:19;;;;;;;;;;;7.30;99.90;;;;;;5004387;28;20103;-69
2022/04/15 05:46:44;;;;;;;;;;;7.20;99.90;;;;;;5019434;28;20463;-67
2022/04/15 05:49:15;;;;;;;;;;;7.30;99.90;;;;;;5008010;28;19946;-68
2022/04/15 05:51:42;;;;;;;;;;;7.30;99.90;;;;;;4994496;28;19945;-69
2022/04/15 05:54:07;;;;;;;;;;;7.30;99.90;;;;;;4995188;28;19929;-67
2022/04/15 05:56:33;;;;;;;;;;;7.50;99.90;;;;;;5012892;28;19922;-69
2022/04/15 05:58:58;;;;;;;;;;;7.30;99.90;;;;;;5013804;28;20370;-69
2022/04/15 06:01:24;;;;;;;;;;;7.40;99.90;;;;;;5002378;28;19933;-69
2022/04/15 06:03:49;;;;;;;;;;;7.40;99.90;;;;;;5008736;28;19922;-70
2022/04/15 06:06:15;;;;;;;;;;;7.50;99.90;;;;;;5011926;28;19928;-69
2022/04/15 06:08:41;;;;;;;;;;;7.40;99.90;;;;;;5012917;28;19922;-68
2022/04/15 06:11:06;;;;;;;;;;;7.50;99.90;;;;;;5007962;28;20256;-69
2022/04/15 06:13:32;;;;;;;;;;;7.50;99.90;;;;;;5007228;28;20378;-69
2022/04/15 06:15:58;;;;;;;;;;;7.50;99.90;;;;;;4993420;28;20387;-69
2022/04/15 06:18:24;;;;;;;;;;;7.50;99.90;;;;;;4994388;28;19929;-69
2022/04/15 06:20:50;;;;;;;;;;;7.50;99.90;;;;;;4998777;28;19961;-69
2022/04/15 06:23:16;;;;;;;;;;;7.50;99.90;;;;;;5005341;28;19968;-68
2022/04/15 06:25:43;;;;;;;;;;;7.60;99.90;;;;;;4998458;28;19921;-68
2022/04/15 06:28:09;;;;;;;;;;;7.60;99.90;;;;;;4993884;28;19922;-70
2022/04/15 06:30:34;;;;;;;;;;;7.60;99.90;;;;;;5013150;28;20051;-70
2022/04/15 06:33:05;;;;;;;;;;;7.70;99.90;;;;;;5008519;28;19984;-69
2022/04/15 06:35:31;;;;;;;;;;;7.70;99.90;;;;;;4993664;28;19922;-69
2022/04/15 06:37:57;;;;;;;;;;;7.80;99.90;;;;;;4998980;28;19921;-69
2022/04/15 06:40:22;;;;;;;;;;;7.80;99.90;;;;;;5002493;28;19917;-69
2022/04/15 06:42:48;;;;;;;;;;;7.90;99.90;;;;;;5007112;28;19925;-69
2022/04/15 06:45:14;;;;;;;;;;;7.90;99.90;;;;;;4996285;28;19926;-69
2022/04/15 06:47:39;;;;;;;;;;;7.90;99.90;;;;;;5007770;28;19991;-70
2022/04/15 06:50:05;;;;;;;;;;;7.90;99.90;;;;;;4999030;28;19988;-69
2022/04/15 06:52:31;;;;;;;;;;;8.00;99.90;;;;;;5008792;28;20384;-70
2022/04/15 06:54:57;;;;;;;;;;;8.00;99.90;;;;;;5001707;28;19968;-69
2022/04/15 06:57:22;;;;;;;;;;;8.00;99.90;;;;;;5010287;28;20008;-69
2022/04/15 06:59:48;;;;;;;;;;;8.00;99.90;;;;;;4993222;28;19965;-69
2022/04/15 07:02:13;;;;;;;;;;;8.10;99.90;;;;;;5009316;28;20334;-69
2022/04/15 07:04:39;;;;;;;;;;;8.00;99.90;;;;;;5011288;28;20415;-69
2022/04/15 07:07:07;;;;;;;;;;;8.20;99.90;;;;;;5011842;28;19967;-70
2022/04/15 07:09:33;;;;;;;;;;;8.30;99.90;;;;;;5011889;28;19925;-69
2022/04/15 07:11:58;;;;;;;;;;;8.10;99.90;;;;;;4993877;28;19921;-68
2022/04/15 07:14:24;;;;;;;;;;;8.20;99.90;;;;;;4996057;28;19951;-68
2022/04/15 07:16:50;;;;;;;;;;;8.20;99.90;;;;;;5012621;28;19921;-68
2022/04/15 07:19:15;;;;;;;;;;;8.30;99.90;;;;;;5011940;28;20287;-69
2022/04/15 07:21:44;;;;;;;;;;;8.40;99.90;;;;;;5012496;28;19969;-70
2022/04/15 07:24:10;;;;;;;;;;;8.40;99.90;;;;;;5009584;28;19921;-69
2022/04/15 07:26:38;;;;;;;;;;;8.50;99.90;;;;;;4994265;28;19921;-69
2022/04/15 07:29:04;;;;;;;;;;;8.20;99.90;;;;;;5001077;28;19975;-69
2022/04/15 07:31:29;;;;;;;;;;;8.70;99.90;;;;;;5011337;28;19926;-68
2022/04/15 07:33:55;;;;;;;;;;;8.70;99.90;;;;;;5012196;28;19925;-69
2022/04/15 07:39:06;;;;;;;;;;;8.70;99.90;;;;;;5012680;28;20068;-70
2022/04/15 07:41:32;;;;;;;;;;;8.50;99.90;;;;;;5027183;28;19917;-70
2022/04/15 07:43:58;;;;;;;;;;;8.50;99.90;;;;;;5002263;28;19984;-70
2022/04/15 07:46:23;;;;;;;;;;;8.60;99.90;;;;;;4992667;28;20404;-68
2022/04/15 07:48:49;;;;;;;;;;;8.60;99.90;;;;;;4992636;28;19922;-70
2022/04/15 07:51:15;;;;;;;;;;;8.80;99.90;;;;;;4999756;28;20306;-70
2022/04/15 07:53:41;;;;;;;;;;;8.70;99.90;;;;;;5012232;28;19968;-69
2022/04/15 07:56:06;;;;;;;;;;;9.20;99.90;;;;;;5009901;28;19964;-68
2022/04/15 07:58:32;;;;;;;;;;;8.50;99.90;;;;;;5011004;28;20346;-69
2022/04/15 08:01:00;;;;;;;;;;;8.60;99.90;;;;;;5015601;28;19921;-69
2022/04/15 08:03:29;;;;;;;;;;;8.60;99.90;;;;;;5016511;28;19928;-69
2022/04/15 08:05:54;;;;;;;;;;;8.80;99.90;;;;;;5015817;28;20273;-70
2022/04/15 08:08:20;;;;;;;;;;;8.90;99.90;;;;;;5015803;28;20012;-68
2022/04/15 08:10:47;;;;;;;;;;;9.20;99.90;;;;;;5015056;28;19980;-69
2022/04/15 08:13:12;;;;;;;;;;;9.40;99.90;;;;;;5016291;28;19921;-68
2022/04/15 08:15:38;;;;;;;;;;;9.40;99.90;;;;;;4996751;28;19921;-69
2022/04/15 08:18:07;;;;;;;;;;;9.30;99.90;;;;;;4996607;28;19965;-69
2022/04/15 08:20:32;;;;;;;;;;;9.30;99.90;;;;;;5008584;28;20445;-69
2022/04/15 08:22:58;;;;;;;;;;;9.30;99.90;;;;;;5015840;28;20021;-69
2022/04/15 08:25:23;;;;;;;;;;;9.50;99.90;;;;;;5014016;28;19929;-68
2022/04/15 08:27:49;;;;;;;;;;;9.60;99.90;;;;;;4997368;28;20371;-69
2022/04/15 08:30:14;;;;;;;;;;;10.50;99.90;;;;;;5010212;28;19922;-70
2022/04/15 08:32:40;;;;;;;;;;;9.70;99.90;;;;;;4998212;28;19921;-69
2022/04/15 08:35:07;;;;;;;;;;;9.70;99.90;;;;;;5012548;28;20392;-70
2022/04/15 08:37:33;;;;;;;;;;;9.70;99.90;;;;;;5014311;28;20055;-69
2022/04/15 08:40:03;;;;;;;;;;;9.60;99.90;;;;;;5007339;28;19956;-69
2022/04/15 08:42:29;;;;;;;;;;;9.50;99.90;;;;;;4994791;28;20311;-70
2022/04/15 08:44:56;;;;;;;;;;;9.60;99.90;;;;;;4996565;28;19928;-71
2022/04/15 08:47:21;;;;;;;;;;;9.50;99.90;;;;;;5004245;28;19981;-69
2022/04/15 08:49:47;;;;;;;;;;;9.80;99.90;;;;;;5015247;28;20401;-69
2022/04/15 08:52:17;;;;;;;;;;;9.40;99.90;;;;;;5003586;28;19932;-69
2022/04/15 08:54:43;;;;;;;;;;;9.70;99.90;;;;;;4999413;28;20394;-72
2022/04/15 08:57:08;;;;;;;;;;;10.10;99.90;;;;;;5014593;28;20148;-70
2022/04/15 08:59:34;;;;;;;;;;;10.50;99.90;;;;;;5013658;28;20004;-69
2022/04/15 09:02:00;;;;;;;;;;;10.30;99.90;;;;;;5014515;28;19921;-70
2022/04/15 09:04:26;;;;;;;;;;;10.20;99.90;;;;;;5013713;28;19929;-70
2022/04/15 09:06:55;;;;;;;;;;;10.20;99.90;;;;;;5014995;28;19921;-69
2022/04/15 09:09:24;;;;;;;;;;;10.10;99.90;;;;;;4995670;28;20347;-69
2022/04/15 09:11:50;;;;;;;;;;;10.10;99.90;;;;;;5009269;28;19922;-70
2022/04/15 09:14:16;;;;;;;;;;;10.50;99.90;;;;;;5014741;28;20104;-72
2022/04/15 09:16:42;;;;;;;;;;;11.00;99.90;;;;;;5015069;28;20004;-70
2022/04/15 09:19:08;;;;;;;;;;;11.10;99.90;;;;;;5014577;28;19927;-69
2022/04/15 09:21:34;;;;;;;;;;;11.10;99.90;;;;;;5014909;28;19922;-68
2022/04/15 09:24:00;;;;;;;;;;;11.00;99.90;;;;;;5013435;28;20059;-69
2022/04/15 09:26:26;;;;;;;;;;;11.00;99.90;;;;;;5001925;28;19929;-69
2022/04/15 09:28:53;;;;;;;;;;;10.90;99.90;;;;;;5014063;28;19983;-69
2022/04/15 09:31:23;;;;;;;;;;;10.80;99.90;;;;;;5014953;28;20012;-71
2022/04/15 09:33:50;;;;;;;;;;;10.60;99.90;;;;;;5013794;28;20020;-68
2022/04/15 09:36:25;;;;;;;;;;;10.60;99.90;;;;;;5000342;28;19922;-69
2022/04/15 09:38:55;;;;;;;;;;;10.60;99.90;;;;;;4994422;28;20331;-70
2022/04/15 09:41:21;;;;;;;;;;;10.60;99.90;;;;;;5004582;28;19917;-68
2022/04/15 09:43:49;;;;;;;;;;;10.40;99.90;;;;;;5012588;28;19922;-69
2022/04/15 09:46:15;;;;;;;;;;;10.50;99.90;;;;;;5014333;28;20279;-69
2022/04/15 09:48:55;;;;;;;;;;;10.70;99.90;;;;;;5013594;28;19921;-69
2022/04/15 09:51:21;;;;;;;;;;;10.70;99.90;;;;;;5014277;28;19921;-69
2022/04/15 09:53:52;;;;;;;;;;;10.50;99.90;;;;;;5012732;28;20268;-69
2022/04/15 09:56:19;;;;;;;;;;;10.30;99.90;;;;;;5011057;28;19922;-70
2022/04/15 09:58:46;;;;;;;;;;;10.30;99.90;;;;;;5008076;28;19922;-68
2022/04/15 10:01:13;;;;;;;;;;;10.20;99.90;;;;;;5012621;28;19928;-68
2022/04/15 10:03:40;;;;;;;;;;;10.30;99.90;;;;;;5013602;28;19921;-70
2022/04/15 10:06:06;;;;;;;;;;;10.40;99.90;;;;;;5013885;28;19921;-70
2022/04/15 10:08:33;;;;;;;;;;;10.30;99.90;;;;;;5014102;28;19984;-69
2022/04/15 10:10:58;;;;;;;;;;;10.30;99.90;;;;;;5009629;28;19968;-69
2022/04/15 10:13:28;;;;;;;;;;;10.30;99.90;;;;;;5012395;28;19925;-71
2022/04/15 10:15:57;;;;;;;;;;;10.20;99.90;;;;;;5013824;28;19925;-69
2022/04/15 10:18:22;;;;;;;;;;;10.50;99.90;;;;;;5012126;28;20248;-70
2022/04/15 10:20:48;;;;;;;;;;;10.30;99.90;;;;;;5012653;28;19944;-68
2022/04/15 10:23:15;;;;;;;;;;;10.30;99.90;;;;;;5001478;28;19933;-68
2022/04/15 10:25:46;;;;;;;;;;;10.30;99.90;;;;;;5012039;28;19921;-68
2022/04/15 10:28:15;;;;;;;;;;;10.30;99.90;;;;;;5012561;28;20412;-69
2022/04/15 10:30:49;;;;;;;;;;;10.20;99.90;;;;;;5002284;28;19926;-70
2022/04/15 10:33:27;;;;;;;;;;;10.30;99.90;;;;;;5001478;28;19985;-69
2022/04/15 10:35:58;;;;;;;;;;;10.50;99.90;;;;;;4999857;28;20379;-69
2022/04/15 10:38:23;;;;;;;;;;;10.50;99.90;;;;;;5007167;28;20380;-69
2022/04/15 10:40:49;;;;;;;;;;;10.50;99.90;;;;;;5009140;28;19925;-69
2022/04/15 10:43:19;;;;;;;;;;;10.60;99.90;;;;;;5010597;28;19925;-68
2022/04/15 10:45:44;;;;;;;;;;;10.60;99.90;;;;;;5006074;28;20442;-69
2022/04/15 10:48:10;;;;;;;;;;;10.50;99.90;;;;;;5009291;28;19968;-69
2022/04/15 10:50:35;;;;;;;;;;;10.40;99.90;;;;;;5008832;28;19948;-70
2022/04/15 10:53:20;;;;;;;;;;;10.50;99.90;;;;;;5002072;28;20280;-68
2022/04/15 10:55:52;;;;;;;;;;;10.20;99.90;;;;;;4994414;28;19925;-69
2022/04/15 10:58:18;;;;;;;;;;;10.10;99.90;;;;;;5009777;28;20288;-69
2022/04/15 11:03:29;;;;;;;;;;;10.30;99.90;;;;;;5004682;28;20307;-70
2022/04/15 11:05:57;;;;;;;;;;;10.20;99.90;;;;;;5000160;28;20474;-69
2022/04/15 11:08:23;;;;;;;;;;;10.10;99.90;;;;;;5008551;28;20036;-70
2022/04/15 11:10:52;;;;;;;;;;;10.20;99.90;;;;;;4999575;28;19941;-69
2022/04/15 11:13:32;;;;;;;;;;;10.20;99.90;;;;;;5022211;28;19983;-69
2022/04/15 11:16:04;;;;;;;;;;;10.20;99.90;;;;;;5007178;28;19926;-68
2022/04/15 11:18:51;;;;;;;;;;;10.20;99.90;;;;;;5007256;28;19925;-68
2022/04/15 11:21:21;;;;;;;;;;;10.20;99.90;;;;;;4994776;28;19933;-69
2022/04/15 11:23:51;;;;;;;;;;;10.30;99.90;;;;;;5008646;28;20402;-69
2022/04/15 11:26:18;;;;;;;;;;;10.30;99.90;;;;;;5008536;28;19973;-68
2022/04/15 11:28:45;;;;;;;;;;;10.30;99.90;;;;;;5007638;28;19925;-68
2022/04/15 11:31:30;;;;;;;;;;;10.00;99.90;;;;;;5001695;28;19926;-69
2022/04/15 11:34:01;;;;;;;;;;;10.00;99.90;;;;;;4999030;28;19926;-69
2022/04/15 11:36:28;;;;;;;;;;;10.30;99.90;;;;;;5005861;28;19931;-68
2022/04/15 11:38:53;;;;;;;;;;;11.00;99.90;;;;;;5002828;28;19925;-70
2022/04/15 11:41:20;;;;;;;;;;;10.30;99.90;;;;;;4992737;28;19925;-69
2022/04/15 11:43:56;;;;;;;;;;;10.40;99.90;;;;;;5008455;28;20394;-69
2022/04/15 11:46:22;;;;;;;;;;;10.20;99.90;;;;;;5008378;28;19925;-69
2022/04/15 11:48:50;;;;;;;;;;;10.30;99.90;;;;;;5006941;28;19937;-69
2022/04/15 11:51:17;;;;;;;;;;;10.30;99.90;;;;;;5007135;28;20302;-68
2022/04/15 11:53:43;;;;;;;;;;;10.30;99.90;;;;;;5007759;28;20355;-68
2022/04/15 11:56:09;;;;;;;;;;;10.20;99.90;;;;;;5001720;28;19972;-68
2022/04/15 11:58:35;;;;;;;;;;;10.10;99.90;;;;;;5001685;28;20024;-69
2022/04/15 12:01:01;;;;;;;;;;;10.20;99.90;;;;;;5008508;28;20008;-68
2022/04/15 12:03:27;;;;;;;;;;;10.10;99.90;;;;;;5009322;28;19936;-69
2022/04/15 12:05:54;;;;;;;;;;;10.50;99.90;;;;;;5018009;28;20371;-69
2022/04/15 12:08:20;;;;;;;;;;;10.30;99.90;;;;;;5000426;28;19932;-67
2022/04/15 12:10:47;;;;;;;;;;;10.20;99.90;;;;;;4999366;28;20019;-69
2022/04/15 12:13:14;;;;;;;;;;;10.30;99.90;;;;;;5005080;28;20012;-69
2022/04/15 12:15:40;;;;;;;;;;;10.20;99.90;;;;;;5001178;28;19972;-69
2022/04/15 12:18:06;;;;;;;;;;;10.20;99.90;;;;;;5005681;28;20363;-69
2022/04/15 12:20:33;;;;;;;;;;;10.10;99.90;;;;;;5003805;28;19976;-69
2022/04/15 12:22:59;;;;;;;;;;;11.00;99.90;;;;;;5004193;28;19928;-70
2022/04/15 12:25:25;;;;;;;;;;;10.00;99.90;;;;;;5007465;28;19979;-69
2022/04/15 12:27:53;;;;;;;;;;;10.20;99.90;;;;;;4993657;28;20020;-69
2022/04/15 12:30:35;;;;;;;;;;;10.10;99.90;;;;;;5004367;28;19933;-69
2022/04/15 12:33:07;;;;;;;;;;;10.10;99.90;;;;;;5008278;28;19952;-69
2022/04/15 12:35:34;;;;;;;;;;;10.00;99.90;;;;;;5007925;28;20334;-69
2022/04/15 12:38:00;;;;;;;;;;;10.00;99.90;;;;;;5019570;28;19925;-68
2022/04/15 12:40:31;;;;;;;;;;;10.00;99.90;;;;;;5007142;28;19980;-69
2022/04/15 12:43:17;;;;;;;;;;;10.10;99.90;;;;;;5008144;28;20433;-69
2022/04/15 12:45:56;;;;;;;;;;;10.20;99.90;;;;;;5001681;28;19995;-69
2022/04/15 12:48:25;;;;;;;;;;;10.00;99.90;;;;;;5011966;28;20016;-69
2022/04/15 12:50:55;;;;;;;;;;;10.00;99.90;;;;;;5010646;28;19932;-69
2022/04/15 12:53:21;;;;;;;;;;;9.80;99.90;;;;;;5010555;28;20017;-69
2022/04/15 12:55:48;;;;;;;;;;;9.90;99.90;;;;;;5006210;28;20004;-68
2022/04/15 12:58:16;;;;;;;;;;;10.00;99.90;;;;;;5001639;28;19925;-68
2022/04/15 13:00:42;;;;;;;;;;;10.00;99.90;;;;;;5007745;28;19925;-70
2022/04/15 13:03:08;;;;;;;;;;;9.90;99.90;;;;;;5007077;28;20303;-71
2022/04/15 13:05:33;;;;;;;;;;;9.90;99.90;;;;;;5011671;28;19925;-69
2022/04/15 13:07:59;;;;;;;;;;;9.80;99.90;;;;;;5001139;28;20060;-68
2022/04/15 13:10:24;;;;;;;;;;;9.80;99.90;;;;;;5002279;28;19951;-70
2022/04/15 13:12:51;;;;;;;;;;;10.70;99.90;;;;;;5003048;28;19988;-69
2022/04/15 13:15:16;;;;;;;;;;;9.90;99.90;;;;;;4999715;28;20020;-70
2022/04/15 13:17:42;;;;;;;;;;;9.80;99.90;;;;;;5011651;28;20572;-69
2022/04/15 13:20:09;;;;;;;;;;;9.80;99.90;;;;;;5001970;28;19930;-70
2022/04/15 13:22:35;;;;;;;;;;;9.90;99.90;;;;;;5003937;28;19968;-71
2022/04/15 13:25:01;;;;;;;;;;;10.00;99.90;;;;;;5001356;28;19921;-69
2022/04/15 13:27:26;;;;;;;;;;;10.00;99.90;;;;;;4998660;28;20544;-69
2022/04/15 13:29:54;;;;;;;;;;;10.00;99.90;;;;;;5004168;28;20296;-70
2022/04/15 13:32:19;;;;;;;;;;;10.00;99.90;;;;;;5002580;28;19925;-70
2022/04/15 13:34:45;;;;;;;;;;;10.00;99.90;;;;;;5001037;28;19932;-71
2022/04/15 13:37:10;;;;;;;;;;;10.10;99.90;;;;;;5007436;28;19940;-69
2022/04/15 13:39:36;;;;;;;;;;;10.00;99.90;;;;;;5009367;28;20346;-69
2022/04/15 13:42:03;;;;;;;;;;;9.90;99.90;;;;;;5005250;28;19925;-69
2022/04/15 13:44:29;;;;;;;;;;;9.80;99.90;;;;;;5008753;28;19929;-70
2022/04/15 13:46:55;;;;;;;;;;;9.80;99.90;;;;;;5011045;28;19971;-68
2022/04/15 13:49:20;;;;;;;;;;;9.80;99.90;;;;;;5009123;28;19933;-70
2022/04/15 13:51:46;;;;;;;;;;;9.90;99.90;;;;;;5009413;28;20393;-69
2022/04/15 13:56:59;;;;;;;;;;;10.00;99.90;;;;;;5001197;28;20014;-69
2022/04/15 13:59:25;;;;;;;;;;;10.20;99.90;;;;;;5006527;28;19984;-71
2022/04/15 14:01:51;;;;;;;;;;;10.10;99.90;;;;;;5009254;28;19925;-71
2022/04/15 14:04:16;;;;;;;;;;;9.70;99.90;;;;;;5008524;28;19927;-68
2022/04/15 14:06:46;;;;;;;;;;;9.70;99.90;;;;;;5010927;28;20454;-70
2022/04/15 14:09:12;;;;;;;;;;;9.80;99.90;;;;;;4978240;28;20283;-70
2022/04/15 14:11:38;;;;;;;;;;;9.60;99.90;;;;;;5009198;28;19929;-69
2022/04/15 14:14:04;;;;;;;;;;;9.60;99.90;;;;;;5003483;28;20359;-70
2022/04/15 14:16:30;;;;;;;;;;;9.60;99.90;;;;;;5006196;28;20326;-70
2022/04/15 14:18:59;;;;;;;;;;;9.60;99.90;;;;;;5023449;28;19979;-69
2022/04/15 14:21:25;;;;;;;;;;;9.60;99.90;;;;;;4995737;28;19938;-71
2022/04/15 14:23:51;;;;;;;;;;;9.70;99.90;;;;;;5001231;28;19925;-69
2022/04/15 14:26:17;;;;;;;;;;;9.60;99.90;;;;;;4995738;28;19930;-70
2022/04/15 14:28:42;;;;;;;;;;;9.70;99.90;;;;;;4999430;28;19932;-68
2022/04/15 14:31:09;;;;;;;;;;;10.50;99.90;;;;;;5000964;28;19925;-69